Game Details

[ Leader Board ] [ Players ] [ Opponents ] [ Guilds ] [ Areas ]

Game Details for: Fayd

Game Progress

Quest Completed on Day
Mushroom Stew 5

Full Telemetry

Time Game Day Game Hour Game Minute Type Details Value Extra Zone X Y Credits Guild
4/27/2020 11:55:07 AM 11 12 14 Combat Lv 1 Chaak Warrior 0 Die InsectForest 22 28 508 None
4/27/2020 11:54:16 AM 11 12 10 Combat Lv 1 Chaak Warrior 0 Flee InsectForest 28 25 508 None
4/27/2020 11:51:35 AM 11 13 9 Combat Lv 1 Creeping Vines 0 Die InsectForest 13 25 358 None
4/27/2020 11:47:42 AM 11 9 58 Save 0 1 Wilderness1 31 14 248 None
4/27/2020 11:47:36 AM 11 9 58 Combat Lv 2 Worg 0 Win Wilderness1 31 14 248 None
4/27/2020 11:45:42 AM 11 8 55 Save 0 2 Wilderness1 32 23 214 None
4/27/2020 11:45:20 AM 11 8 47 Daily Fayd 1030 Village1 10 27 220 None
4/27/2020 11:44:25 AM 10 12 37 Equip Cloth Armor 73 Village1 22 25 207 None
4/27/2020 11:42:17 AM 10 12 23 Train Intelligence 2 Village1 4 9 291 None
4/27/2020 11:41:47 AM 10 9 47 Combat Lv 1 Worg 0 Win Wilderness1 28 19 323 None
4/27/2020 11:40:46 AM 10 8 57 Save 0 1 Wilderness1 34 19 296 None
4/27/2020 11:40:38 AM 10 8 57 Combat Lv 1 Worg 0 Win Wilderness1 34 19 296 None
4/26/2020 10:48:44 AM 10 10 42 Combat Lv 2 Worg 0 Die Wilderness1 30 14 268 None
4/26/2020 10:46:40 AM 10 17 21 Combat Lv 2 Thug 0 Die Wilderness1 8 23 280 None
4/26/2020 10:44:57 AM 10 10 48 Combat Lv 1 Wasp 0 Win Wilderness1 26 19 280 None
4/26/2020 10:43:52 AM 10 8 46 Save 0 2 Wilderness1 34 22 268 None
4/26/2020 10:43:34 AM 10 8 13 Daily Fayd 833 Village1 10 27 274 None
4/26/2020 10:43:11 AM 9 20 42 Combat Lv 2 Worg 0 Die Wilderness1 30 14 279 None
4/25/2020 2:33:31 PM 9 19 7 Save 0 1 Village1 10 10 279 None
4/25/2020 2:33:11 PM 9 18 1 Combat Lv 3 Wasp 0 Win Village1 10 7 242 None
4/25/2020 2:33:11 PM 9 18 1 Arena Win 2 Village1 10 7 279 None
4/25/2020 2:32:00 PM 9 17 56 Save 0 2 Village1 8 27 219 None
4/25/2020 2:31:22 PM 9 1 43 Daily Fayd 833 Village1 6 26 170 None
4/25/2020 2:30:52 PM 8 11 39 Equip Kinetic Field 133 Village1 22 25 90 None
4/25/2020 2:29:46 PM 8 11 32 Train Tech 2 Village1 5 8 90 None
4/25/2020 2:06:47 PM 8 9 30 Save 0 1 Village1 10 8 122 None
4/25/2020 2:06:37 PM 8 8 30 Arena Win 1 Village1 10 7 122 None
4/25/2020 2:06:37 PM 8 8 30 Combat Lv 1 Worg 0 Win Village1 10 7 97 None
4/25/2020 1:09:33 PM 8 8 30 Save 0 2 Village1 11 10 73 None
4/25/2020 1:09:12 PM 8 8 18 Daily Fayd 740 Village1 10 27 79 None